sensor_id;sensor_type;location;lat;lon;timestamp;pressure;altitude;pressure_sealevel;temperature;humidity
59190;BME280;50749;51.636;4.948;2023-02-23T00:00:42;101340.81;;;17.50;52.97
59190;BME280;50749;51.636;4.948;2023-02-23T00:03:14;101336.44;;;17.49;52.87
59190;BME280;50749;51.636;4.948;2023-02-23T00:05:40;101339.53;;;17.48;52.50
59190;BME280;50749;51.636;4.948;2023-02-23T00:08:06;101338.75;;;17.47;52.53
59190;BME280;50749;51.636;4.948;2023-02-23T00:10:32;101330.44;;;17.47;52.56
59190;BME280;50749;51.636;4.948;2023-02-23T00:12:59;101332.75;;;17.45;52.82
59190;BME280;50749;51.636;4.948;2023-02-23T00:15:26;101335.84;;;17.43;52.81
59190;BME280;50749;51.636;4.948;2023-02-23T00:17:53;101333.09;;;17.43;52.69
59190;BME280;50749;51.636;4.948;2023-02-23T00:20:20;101340.56;;;17.43;52.93
59190;BME280;50749;51.636;4.948;2023-02-23T00:22:57;101334.22;;;17.42;53.00
59190;BME280;50749;51.636;4.948;2023-02-23T00:25:23;101326.28;;;17.41;52.51
59190;BME280;50749;51.636;4.948;2023-02-23T00:27:50;101331.81;;;17.41;52.56
59190;BME280;50749;51.636;4.948;2023-02-23T00:30:18;101327.06;;;17.41;52.86
59190;BME280;50749;51.636;4.948;2023-02-23T00:32:44;101323.84;;;17.39;52.72
59190;BME280;50749;51.636;4.948;2023-02-23T00:35:11;101320.28;;;17.39;52.67
59190;BME280;50749;51.636;4.948;2023-02-23T00:37:44;101316.72;;;17.38;52.95
59190;BME280;50749;51.636;4.948;2023-02-23T00:40:11;101322.25;;;17.38;52.61
59190;BME280;50749;51.636;4.948;2023-02-23T00:42:38;101317.88;;;17.37;52.84
59190;BME280;50749;51.636;4.948;2023-02-23T00:45:05;101320.63;;;17.37;52.78
59190;BME280;50749;51.636;4.948;2023-02-23T00:47:43;101322.94;;;17.35;52.91
59190;BME280;50749;51.636;4.948;2023-02-23T00:50:12;101320.19;;;17.35;52.91
59190;BME280;50749;51.636;4.948;2023-02-23T00:52:42;101326.84;;;17.34;52.93
59190;BME280;50749;51.636;4.948;2023-02-23T00:55:10;101325.25;;;17.33;52.74
59190;BME280;50749;51.636;4.948;2023-02-23T00:57:37;101328.00;;;17.33;52.74
59190;BME280;50749;51.636;4.948;2023-02-23T01:00:05;101327.19;;;17.33;52.78
59190;BME280;50749;51.636;4.948;2023-02-23T01:02:58;101329.16;;;17.32;52.61
59190;BME280;50749;51.636;4.948;2023-02-23T01:05:24;101331.91;;;17.32;52.66
59190;BME280;50749;51.636;4.948;2023-02-23T01:07:49;101331.09;;;17.32;52.75
59190;BME280;50749;51.636;4.948;2023-02-23T01:10:15;101331.44;;;17.30;52.58
59190;BME280;50749;51.636;4.948;2023-02-23T01:12:46;101334.22;;;17.30;52.67
59190;BME280;50749;51.636;4.948;2023-02-23T01:15:12;101332.59;;;17.29;52.90
59190;BME280;50749;51.636;4.948;2023-02-23T01:17:38;101330.97;;;17.28;52.74
59190;BME280;50749;51.636;4.948;2023-02-23T01:20:05;101329.38;;;17.27;52.75
59190;BME280;50749;51.636;4.948;2023-02-23T01:22:41;101332.13;;;17.27;52.67
59190;BME280;50749;51.636;4.948;2023-02-23T01:25:08;101333.25;;;17.26;52.71
59190;BME280;50749;51.636;4.948;2023-02-23T01:27:35;101338.78;;;17.26;53.01
59190;BME280;50749;51.636;4.948;2023-02-23T01:30:01;101344.31;;;17.26;52.70
59190;BME280;50749;51.636;4.948;2023-02-23T01:32:26;101341.56;;;17.26;52.75
59190;BME280;50749;51.636;4.948;2023-02-23T01:34:52;101350.19;;;17.24;53.08
59190;BME280;50749;51.636;4.948;2023-02-23T01:37:18;101351.00;;;17.25;52.65
59190;BME280;50749;51.636;4.948;2023-02-23T01:39:44;101350.19;;;17.24;53.03
59190;BME280;50749;51.636;4.948;2023-02-23T01:42:13;101346.16;;;17.22;52.98
59190;BME280;50749;51.636;4.948;2023-02-23T01:47:05;101351.69;;;17.22;52.86
59190;BME280;50749;51.636;4.948;2023-02-23T01:49:32;101355.59;;;17.21;52.94
59190;BME280;50749;51.636;4.948;2023-02-23T01:52:04;101355.59;;;17.21;52.74
59190;BME280;50749;51.636;4.948;2023-02-23T01:54:35;101359.50;;;17.20;52.95
59190;BME280;50749;51.636;4.948;2023-02-23T01:57:04;101357.88;;;17.19;53.04
59190;BME280;50749;51.636;4.948;2023-02-23T01:59:38;101352.38;;;17.19;52.98
59190;BME280;50749;51.636;4.948;2023-02-23T02:02:04;101353.50;;;17.18;53.01
59190;BME280;50749;51.636;4.948;2023-02-23T02:04:33;101348.81;;;17.18;52.75
59190;BME280;50749;51.636;4.948;2023-02-23T02:07:20;101352.69;;;17.17;52.63
59190;BME280;50749;51.636;4.948;2023-02-23T02:09:50;101346.38;;;17.17;52.96
59190;BME280;50749;51.636;4.948;2023-02-23T02:12:54;101346.38;;;17.17;52.84
59190;BME280;50749;51.636;4.948;2023-02-23T02:15:22;101346.72;;;17.15;52.85
59190;BME280;50749;51.636;4.948;2023-02-23T02:26:02;101352.91;;;17.12;52.74
59190;BME280;50749;51.636;4.948;2023-02-23T02:41:56;101340.13;;;17.07;53.07
59190;BME280;50749;51.636;4.948;2023-02-23T02:45:11;101341.28;;;17.06;52.57
59190;BME280;50749;51.636;4.948;2023-02-23T02:47:21;101343.22;;;17.06;52.54
59190;BME280;50749;51.636;4.948;2023-02-23T02:50:09;101336.88;;;17.05;52.63
59190;BME280;50749;51.636;4.948;2023-02-23T02:52:53;101344.72;;;17.03;52.92
59190;BME280;50749;51.636;4.948;2023-02-23T02:55:25;101341.63;;;17.05;52.80
59190;BME280;50749;51.636;4.948;2023-02-23T02:57:57;101340.00;;;17.04;52.92
59190;BME280;50749;51.636;4.948;2023-02-23T03:00:30;101343.09;;;17.02;52.85
59190;BME280;50749;51.636;4.948;2023-02-23T03:03:35;101334.81;;;17.02;52.75
59190;BME280;50749;51.636;4.948;2023-02-23T03:06:33;101343.88;;;17.03;52.78
59190;BME280;50749;51.636;4.948;2023-02-23T03:09:46;101348.16;;;17.00;52.63
59190;BME280;50749;51.636;4.948;2023-02-23T03:12:54;101345.72;;;16.99;52.93
59190;BME280;50749;51.636;4.948;2023-02-23T03:16:22;101347.69;;;16.98;52.63
59190;BME280;50749;51.636;4.948;2023-02-23T03:19:25;101347.19;;;16.96;52.77
59190;BME280;50749;51.636;4.948;2023-02-23T03:22:29;101355.47;;;16.96;52.65
59190;BME280;50749;51.636;4.948;2023-02-23T03:26:05;101355.47;;;16.96;52.72
59190;BME280;50749;51.636;4.948;2023-02-23T03:28:30;101359.41;;;16.95;53.01
59190;BME280;50749;51.636;4.948;2023-02-23T03:31:23;101353.09;;;16.95;52.79
59190;BME280;50749;51.636;4.948;2023-02-23T03:37:32;101360.88;;;16.93;52.74
59190;BME280;50749;51.636;4.948;2023-02-23T03:40:25;101372.25;;;16.91;52.65
59190;BME280;50749;51.636;4.948;2023-02-23T03:43:18;101363.19;;;16.90;52.58
59190;BME280;50749;51.636;4.948;2023-02-23T03:46:08;101359.28;;;16.92;52.72
59190;BME280;50749;51.636;4.948;2023-02-23T03:48:56;101365.16;;;16.90;52.68
59190;BME280;50749;51.636;4.948;2023-02-23T03:51:46;101369.03;;;16.89;52.96
59190;BME280;50749;51.636;4.948;2023-02-23T03:54:43;101361.91;;;16.88;52.92
59190;BME280;50749;51.636;4.948;2023-02-23T03:57:30;101366.28;;;16.89;52.67
59190;BME280;50749;51.636;4.948;2023-02-23T04:00:22;101362.72;;;16.88;52.92
59190;BME280;50749;51.636;4.948;2023-02-23T04:03:11;101367.91;;;16.90;52.77
59190;BME280;50749;51.636;4.948;2023-02-23T04:05:57;101363.97;;;16.91;53.16
59190;BME280;50749;51.636;4.948;2023-02-23T04:08:42;101369.66;;;16.95;52.93
59190;BME280;50749;51.636;4.948;2023-02-23T04:11:30;101364.72;;;17.00;52.89
59190;BME280;50749;51.636;4.948;2023-02-23T04:14:23;101370.03;;;17.05;53.02
59190;BME280;50749;51.636;4.948;2023-02-23T04:16:51;101364.75;;;17.13;52.85
59190;BME280;50749;51.636;4.948;2023-02-23T04:19:17;101372.50;;;17.19;52.91
59190;BME280;50749;51.636;4.948;2023-02-23T04:21:43;101374.72;;;17.26;53.01
59190;BME280;50749;51.636;4.948;2023-02-23T04:24:09;101376.91;;;17.33;52.94
59190;BME280;50749;51.636;4.948;2023-02-23T04:26:35;101378.34;;;17.39;52.84
59190;BME280;50749;51.636;4.948;2023-02-23T04:29:01;101373.38;;;17.44;52.92
59190;BME280;50749;51.636;4.948;2023-02-23T04:31:27;101378.69;;;17.50;52.79
59190;BME280;50749;51.636;4.948;2023-02-23T04:33:53;101381.25;;;17.55;52.85
59190;BME280;50749;51.636;4.948;2023-02-23T04:36:19;101379.41;;;17.59;52.59
59190;BME280;50749;51.636;4.948;2023-02-23T04:38:45;101377.56;;;17.63;52.48
59190;BME280;50749;51.636;4.948;2023-02-23T04:41:10;101378.50;;;17.67;52.50
59190;BME280;50749;51.636;4.948;2023-02-23T04:43:36;101376.31;;;17.73;52.57
59190;BME280;50749;51.636;4.948;2023-02-23T04:46:02;101374.84;;;17.75;52.50
59190;BME280;50749;51.636;4.948;2023-02-23T04:48:28;101380.94;;;17.81;52.59
59190;BME280;50749;51.636;4.948;2023-02-23T04:50:54;101380.72;;;17.86;52.70
59190;BME280;50749;51.636;4.948;2023-02-23T04:53:20;101378.56;;;17.92;52.64
59190;BME280;50749;51.636;4.948;2023-02-23T04:55:46;101381.91;;;17.97;52.46
59190;BME280;50749;51.636;4.948;2023-02-23T04:58:12;101389.16;;;18.02;52.59
59190;BME280;50749;51.636;4.948;2023-02-23T05:00:38;101381.78;;;18.06;52.35
59190;BME280;50749;51.636;4.948;2023-02-23T05:03:05;101392.63;;;18.11;52.15
59190;BME280;50749;51.636;4.948;2023-02-23T05:05:31;101387.22;;;18.15;52.11
59190;BME280;50749;51.636;4.948;2023-02-23T05:07:57;101387.31;;;18.18;52.55
59190;BME280;50749;51.636;4.948;2023-02-23T05:10:23;101385.00;;;18.20;52.48
59190;BME280;50749;51.636;4.948;2023-02-23T05:12:49;101393.78;;;18.23;52.28
59190;BME280;50749;51.636;4.948;2023-02-23T05:15:15;101397.00;;;18.25;52.02
59190;BME280;50749;51.636;4.948;2023-02-23T05:17:41;101395.88;;;18.26;52.13
59190;BME280;50749;51.636;4.948;2023-02-23T05:20:09;101404.63;;;18.28;51.93
59190;BME280;50749;51.636;4.948;2023-02-23T05:22:36;101404.75;;;18.31;52.27
59190;BME280;50749;51.636;4.948;2023-02-23T05:25:01;101408.75;;;18.34;52.32
59190;BME280;50749;51.636;4.948;2023-02-23T05:27:29;101406.47;;;18.36;51.95
59190;BME280;50749;51.636;4.948;2023-02-23T05:29:54;101411.28;;;18.39;52.13
59190;BME280;50749;51.636;4.948;2023-02-23T05:32:20;101407.84;;;18.42;51.78
59190;BME280;50749;51.636;4.948;2023-02-23T05:34:46;101411.88;;;18.45;51.90
59190;BME280;50749;51.636;4.948;2023-02-23T05:37:12;101409.56;;;18.47;51.72
59190;BME280;50749;51.636;4.948;2023-02-23T05:39:38;101410.84;;;18.49;52.13
59190;BME280;50749;51.636;4.948;2023-02-23T05:42:04;101409.66;;;18.50;51.84
59190;BME280;50749;51.636;4.948;2023-02-23T05:44:30;101409.31;;;18.52;51.87
59190;BME280;50749;51.636;4.948;2023-02-23T05:46:56;101416.13;;;18.54;51.53
59190;BME280;50749;51.636;4.948;2023-02-23T05:49:21;101414.50;;;18.53;51.79
59190;BME280;50749;51.636;4.948;2023-02-23T05:51:48;101416.13;;;18.54;51.68
59190;BME280;50749;51.636;4.948;2023-02-23T05:54:14;101413.72;;;18.53;51.73
59190;BME280;50749;51.636;4.948;2023-02-23T05:56:41;101414.50;;;18.53;52.06
59190;BME280;50749;51.636;4.948;2023-02-23T05:59:07;101413.72;;;18.53;52.21
59190;BME280;50749;51.636;4.948;2023-02-23T06:01:33;101418.09;;;18.54;52.34
59190;BME280;50749;51.636;4.948;2023-02-23T06:03:58;101419.25;;;18.53;52.36
59190;BME280;50749;51.636;4.948;2023-02-23T06:06:25;101410.13;;;18.52;52.46
59190;BME280;50749;51.636;4.948;2023-02-23T06:08:52;101419.25;;;18.53;52.47
59190;BME280;50749;51.636;4.948;2023-02-23T06:11:18;101414.84;;;18.52;52.90
59190;BME280;50749;51.636;4.948;2023-02-23T06:13:43;101410.50;;;18.51;52.64
59190;BME280;50749;51.636;4.948;2023-02-23T06:16:09;101425.13;;;18.51;52.57
59190;BME280;50749;51.636;4.948;2023-02-23T06:18:35;101423.50;;;18.50;52.91
59190;BME280;50749;51.636;4.948;2023-02-23T06:21:02;101422.03;;;18.53;53.44
59190;BME280;50749;51.636;4.948;2023-02-23T06:23:29;101428.34;;;18.53;52.84
59190;BME280;50749;51.636;4.948;2023-02-23T06:25:55;101442.19;;;18.53;52.60
59190;BME280;50749;51.636;4.948;2023-02-23T06:28:22;101435.88;;;18.53;53.67
59190;BME280;50749;51.636;4.948;2023-02-23T06:30:51;101435.41;;;18.51;53.75
59190;BME280;50749;51.636;4.948;2023-02-23T06:33:17;101438.97;;;18.51;53.83
59190;BME280;50749;51.636;4.948;2023-02-23T06:35:43;101441.28;;;18.49;53.60
59190;BME280;50749;51.636;4.948;2023-02-23T06:38:10;101443.25;;;18.49;53.89
59190;BME280;50749;51.636;4.948;2023-02-23T06:40:37;101445.22;;;18.48;53.83
59190;BME280;50749;51.636;4.948;2023-02-23T06:43:03;101452.38;;;18.49;54.06
59190;BME280;50749;51.636;4.948;2023-02-23T06:45:30;101447.97;;;18.48;54.53
59190;BME280;50749;51.636;4.948;2023-02-23T06:47:59;101449.13;;;18.47;54.53
59190;BME280;50749;51.636;4.948;2023-02-23T06:50:26;101457.44;;;18.47;54.76
59190;BME280;50749;51.636;4.948;2023-02-23T06:52:52;101454.66;;;18.47;54.69
59190;BME280;50749;51.636;4.948;2023-02-23T06:55:18;101464.13;;;18.46;54.77
59190;BME280;50749;51.636;4.948;2023-02-23T06:57:44;101466.91;;;18.46;54.69
59190;BME280;50749;51.636;4.948;2023-02-23T07:00:10;101470.00;;;18.45;54.95
59190;BME280;50749;51.636;4.948;2023-02-23T07:02:40;101477.53;;;18.44;54.87
59190;BME280;50749;51.636;4.948;2023-02-23T07:05:06;101483.06;;;18.44;55.02
59190;BME280;50749;51.636;4.948;2023-02-23T07:07:33;101482.22;;;18.44;55.12
59190;BME280;50749;51.636;4.948;2023-02-23T07:09:58;101492.50;;;18.43;55.20
59190;BME280;50749;51.636;4.948;2023-02-23T07:12:24;101496.41;;;18.42;55.31
59190;BME280;50749;51.636;4.948;2023-02-23T07:14:50;101498.38;;;18.42;55.88
59190;BME280;50749;51.636;4.948;2023-02-23T07:17:16;101497.09;;;18.39;56.05
59190;BME280;50749;51.636;4.948;2023-02-23T07:19:42;101501.03;;;18.38;56.13
59190;BME280;50749;51.636;4.948;2023-02-23T07:22:08;101514.44;;;18.36;56.13
59190;BME280;50749;51.636;4.948;2023-02-23T07:24:34;101511.16;;;18.34;56.42
59190;BME280;50749;51.636;4.948;2023-02-23T07:27:00;101515.91;;;18.33;56.12
59190;BME280;50749;51.636;4.948;2023-02-23T07:29:26;101511.88;;;18.31;56.41
59190;BME280;50749;51.636;4.948;2023-02-23T07:31:53;101519.69;;;18.29;56.47
59190;BME280;50749;51.636;4.948;2023-02-23T07:34:19;101523.63;;;18.28;56.55
59190;BME280;50749;51.636;4.948;2023-02-23T07:36:45;101530.66;;;18.25;57.00
59190;BME280;50749;51.636;4.948;2023-02-23T07:39:11;101533.75;;;18.24;56.78
59190;BME280;50749;51.636;4.948;2023-02-23T07:41:37;101528.91;;;18.20;56.49
59190;BME280;50749;51.636;4.948;2023-02-23T07:44:04;101528.91;;;18.20;56.68
59190;BME280;50749;51.636;4.948;2023-02-23T07:46:30;101539.53;;;18.18;56.91
59190;BME280;50749;51.636;4.948;2023-02-23T07:48:56;101546.22;;;18.17;57.01
59190;BME280;50749;51.636;4.948;2023-02-23T07:51:22;101541.38;;;18.14;56.48
59190;BME280;50749;51.636;4.948;2023-02-23T07:53:48;101554.75;;;18.12;56.10
59190;BME280;50749;51.636;4.948;2023-02-23T07:56:14;101556.22;;;18.10;55.94
59190;BME280;50749;51.636;4.948;2023-02-23T07:58:41;101548.94;;;18.05;55.62
59190;BME280;50749;51.636;4.948;2023-02-23T08:01:08;101553.56;;;18.01;55.37
59190;BME280;50749;51.636;4.948;2023-02-23T08:03:34;101551.13;;;17.99;55.30
59190;BME280;50749;51.636;4.948;2023-02-23T08:06:00;101550.19;;;17.95;55.09
59190;BME280;50749;51.636;4.948;2023-02-23T08:08:26;101561.59;;;17.94;54.93
59190;BME280;50749;51.636;4.948;2023-02-23T08:11:02;101566.66;;;17.92;55.18
59190;BME280;50749;51.636;4.948;2023-02-23T08:13:30;101565.06;;;17.91;54.86
59190;BME280;50749;51.636;4.948;2023-02-23T08:15:57;101564.22;;;17.90;54.88
59190;BME280;50749;51.636;4.948;2023-02-23T08:18:23;101568.50;;;17.88;54.73
59190;BME280;50749;51.636;4.948;2023-02-23T08:20:49;101568.69;;;17.82;54.68
59190;BME280;50749;51.636;4.948;2023-02-23T08:23:15;101573.03;;;17.83;54.51
59190;BME280;50749;51.636;4.948;2023-02-23T08:25:43;101574.66;;;17.85;54.54
59190;BME280;50749;51.636;4.948;2023-02-23T08:28:08;101579.06;;;17.86;54.28
59190;BME280;50749;51.636;4.948;2023-02-23T08:30:34;101575.81;;;17.83;54.44
59190;BME280;50749;51.636;4.948;2023-02-23T08:33:00;101579.63;;;17.79;54.50
59190;BME280;50749;51.636;4.948;2023-02-23T08:35:27;101577.84;;;17.74;54.77
59190;BME280;50749;51.636;4.948;2023-02-23T08:37:56;101585.69;;;17.72;54.53
59190;BME280;50749;51.636;4.948;2023-02-23T08:40:22;101578.88;;;17.70;54.42
59190;BME280;50749;51.636;4.948;2023-02-23T08:42:48;101582.31;;;17.67;54.57
59190;BME280;50749;51.636;4.948;2023-02-23T08:45:17;101595.00;;;17.68;54.65
59190;BME280;50749;51.636;4.948;2023-02-23T08:47:43;101593.69;;;17.65;54.75
59190;BME280;50749;51.636;4.948;2023-02-23T08:50:10;101597.16;;;17.62;54.55
59190;BME280;50749;51.636;4.948;2023-02-23T08:52:37;101596.34;;;17.61;54.83
59190;BME280;50749;51.636;4.948;2023-02-23T08:55:04;101603.03;;;17.60;55.04
59190;BME280;50749;51.636;4.948;2023-02-23T08:57:34;101602.53;;;17.58;54.78
59190;BME280;50749;51.636;4.948;2023-02-23T09:00:03;101607.25;;;17.58;54.93
59190;BME280;50749;51.636;4.948;2023-02-23T09:02:36;101610.03;;;17.58;54.98
59190;BME280;50749;51.636;4.948;2023-02-23T09:05:03;101612.31;;;17.56;55.00
59190;BME280;50749;51.636;4.948;2023-02-23T09:07:28;101618.53;;;17.53;54.83
59190;BME280;50749;51.636;4.948;2023-02-23T09:09:56;101623.25;;;17.52;55.36
59190;BME280;50749;51.636;4.948;2023-02-23T09:12:22;101625.22;;;17.52;55.42
59190;BME280;50749;51.636;4.948;2023-02-23T09:14:48;101629.13;;;17.51;55.25
59190;BME280;50749;51.636;4.948;2023-02-23T09:17:16;101624.72;;;17.50;55.16
59190;BME280;50749;51.636;4.948;2023-02-23T09:19:42;101633.84;;;17.50;55.30
59190;BME280;50749;51.636;4.948;2023-02-23T09:22:08;101632.22;;;17.49;55.20
59190;BME280;50749;51.636;4.948;2023-02-23T09:24:34;101638.53;;;17.50;55.34
59190;BME280;50749;51.636;4.948;2023-02-23T09:27:00;101634.50;;;17.47;54.85
59190;BME280;50749;51.636;4.948;2023-02-23T09:29:26;101629.78;;;17.48;55.19
59190;BME280;50749;51.636;4.948;2023-02-23T09:31:52;101634.97;;;17.49;55.19
59190;BME280;50749;51.636;4.948;2023-02-23T09:34:18;101640.50;;;17.49;55.15
59190;BME280;50749;51.636;4.948;2023-02-23T09:36:44;101642.94;;;17.51;55.22
59190;BME280;50749;51.636;4.948;2023-02-23T09:39:10;101634.63;;;17.51;55.31
59190;BME280;50749;51.636;4.948;2023-02-23T09:47:44;101646.69;;;17.46;54.85
59190;BME280;50749;51.636;4.948;2023-02-23T09:50:17;101649.78;;;17.44;55.33
59190;BME280;50749;51.636;4.948;2023-02-23T09:52:48;101647.88;;;17.45;54.98
59190;BME280;50749;51.636;4.948;2023-02-23T09:55:17;101645.09;;;17.45;55.30
59190;BME280;50749;51.636;4.948;2023-02-23T09:57:44;101646.69;;;17.46;55.66
59190;BME280;50749;51.636;4.948;2023-02-23T10:00:19;101650.97;;;17.43;55.49
59190;BME280;50749;51.636;4.948;2023-02-23T10:05:22;101648.31;;;17.47;55.84
59190;BME280;50749;51.636;4.948;2023-02-23T10:11:28;101650.75;;;17.49;55.82
59190;BME280;50749;51.636;4.948;2023-02-23T10:17:13;101648.78;;;17.49;55.86
59190;BME280;50749;51.636;4.948;2023-02-23T10:19:45;101648.00;;;17.49;56.22
59190;BME280;50749;51.636;4.948;2023-02-23T10:22:14;101646.38;;;17.48;55.72
59190;BME280;50749;51.636;4.948;2023-02-23T10:25:11;101646.38;;;17.48;55.78
59190;BME280;50749;51.636;4.948;2023-02-23T10:27:44;101647.03;;;17.44;55.94
59190;BME280;50749;51.636;4.948;2023-02-23T10:30:20;101662.94;;;17.48;56.00
59190;BME280;50749;51.636;4.948;2023-02-23T10:33:03;101664.09;;;17.46;55.65
59190;BME280;50749;51.636;4.948;2023-02-23T10:35:30;101662.94;;;17.48;55.80
59190;BME280;50749;51.636;4.948;2023-02-23T10:37:57;101661.81;;;17.49;55.95
59190;BME280;50749;51.636;4.948;2023-02-23T10:40:26;101660.66;;;17.50;55.81
59190;BME280;50749;51.636;4.948;2023-02-23T10:42:54;101664.25;;;17.50;55.52
59190;BME280;50749;51.636;4.948;2023-02-23T10:45:22;101670.91;;;17.49;55.77
59190;BME280;50749;51.636;4.948;2023-02-23T10:47:52;101667.34;;;17.49;55.47
59190;BME280;50749;51.636;4.948;2023-02-23T10:50:20;101663.75;;;17.48;55.61
59190;BME280;50749;51.636;4.948;2023-02-23T10:52:49;101668.47;;;17.48;55.09
59190;BME280;50749;51.636;4.948;2023-02-23T10:55:27;101674.00;;;17.48;55.28
59190;BME280;50749;51.636;4.948;2023-02-23T11:00:29;101663.63;;;17.44;55.44
59190;BME280;50749;51.636;4.948;2023-02-23T11:03:00;101661.19;;;17.43;55.27
59190;BME280;50749;51.636;4.948;2023-02-23T11:10:41;101674.66;;;17.44;55.79
59190;BME280;50749;51.636;4.948;2023-02-23T11:13:20;101671.56;;;17.46;56.08
59190;BME280;50749;51.636;4.948;2023-02-23T11:15:47;101675.13;;;17.46;56.08
59190;BME280;50749;51.636;4.948;2023-02-23T11:18:21;101674.66;;;17.44;55.46
59190;BME280;50749;51.636;4.948;2023-02-23T11:20:50;101663.81;;;17.39;55.16
59190;BME280;50749;51.636;4.948;2023-02-23T11:23:22;101671.78;;;17.41;55.30
59190;BME280;50749;51.636;4.948;2023-02-23T11:25:51;101661.84;;;17.40;55.18
59190;BME280;50749;51.636;4.948;2023-02-23T11:28:35;101662.44;;;17.24;53.58
59190;BME280;50749;51.636;4.948;2023-02-23T11:31:22;101672.22;;;17.22;54.82
59190;BME280;50749;51.636;4.948;2023-02-23T11:33:54;101672.22;;;17.22;54.98
59190;BME280;50749;51.636;4.948;2023-02-23T11:36:28;101670.38;;;17.26;55.19
59190;BME280;50749;51.636;4.948;2023-02-23T11:39:08;101672.81;;;17.27;55.06
59190;BME280;50749;51.636;4.948;2023-02-23T11:41:40;101671.69;;;17.29;55.33
59190;BME280;50749;51.636;4.948;2023-02-23T11:44:07;101665.50;;;17.32;54.97
59190;BME280;50749;51.636;4.948;2023-02-23T11:46:42;101667.09;;;17.33;54.92
59190;BME280;50749;51.636;4.948;2023-02-23T11:49:20;101667.44;;;17.31;55.11
59190;BME280;50749;51.636;4.948;2023-02-23T11:51:50;101666.28;;;17.32;55.10
59190;BME280;50749;51.636;4.948;2023-02-23T11:54:26;101662.03;;;17.35;55.05
59190;BME280;50749;51.636;4.948;2023-02-23T11:56:53;101657.69;;;17.34;54.86
59190;BME280;50749;51.636;4.948;2023-02-23T12:02:32;101651.47;;;17.37;55.10
59190;BME280;50749;51.636;4.948;2023-02-23T12:05:07;101653.91;;;17.38;55.02
59190;BME280;50749;51.636;4.948;2023-02-23T12:07:48;101651.63;;;17.40;54.67
59190;BME280;50749;51.636;4.948;2023-02-23T12:15:53;101650.78;;;17.40;54.50
59190;BME280;50749;51.636;4.948;2023-02-23T12:23:56;101660.38;;;17.42;54.65
59190;BME280;50749;51.636;4.948;2023-02-23T12:26:26;101661.50;;;17.41;55.11
59190;BME280;50749;51.636;4.948;2023-02-23T12:28:56;101645.75;;;17.42;54.67
59190;BME280;50749;51.636;4.948;2023-02-23T12:31:35;101655.19;;;17.41;54.67
59190;BME280;50749;51.636;4.948;2023-02-23T12:34:34;101654.84;;;17.42;55.06
59190;BME280;50749;51.636;4.948;2023-02-23T12:37:01;101662.22;;;17.38;55.04
59190;BME280;50749;51.636;4.948;2023-02-23T12:39:34;101653.41;;;17.36;55.04
59190;BME280;50749;51.636;4.948;2023-02-23T12:50:34;101652.28;;;17.37;55.12
59190;BME280;50749;51.636;4.948;2023-02-23T12:53:25;101645.97;;;17.37;55.17
59190;BME280;50749;51.636;4.948;2023-02-23T13:01:29;101657.34;;;17.35;55.08
59190;BME280;50749;51.636;4.948;2023-02-23T13:12:04;101671.22;;;17.26;55.40
59190;BME280;50749;51.636;4.948;2023-02-23T13:19:54;101664.84;;;17.26;55.24
59190;BME280;50749;51.636;4.948;2023-02-23T13:22:39;101673.16;;;17.26;55.27
59190;BME280;50749;51.636;4.948;2023-02-23T13:25:21;101662.09;;;17.26;55.35
59190;BME280;50749;51.636;4.948;2023-02-23T13:27:56;101662.09;;;17.26;55.19
59190;BME280;50749;51.636;4.948;2023-02-23T13:30:25;101673.63;;;17.28;55.25
59190;BME280;50749;51.636;4.948;2023-02-23T13:32:51;101665.34;;;17.28;55.01
59190;BME280;50749;51.636;4.948;2023-02-23T13:35:18;101668.09;;;17.28;54.97
59190;BME280;50749;51.636;4.948;2023-02-23T13:46:27;101652.81;;;17.31;55.03
59190;BME280;50749;51.636;4.948;2023-02-23T13:51:48;101650.78;;;17.40;54.68
59190;BME280;50749;51.636;4.948;2023-02-23T13:56:50;101658.72;;;17.50;54.43
59190;BME280;50749;51.636;4.948;2023-02-23T13:59:29;101665.66;;;17.56;54.58
59190;BME280;50749;51.636;4.948;2023-02-23T14:02:36;101667.41;;;17.61;54.45
59190;BME280;50749;51.636;4.948;2023-02-23T14:05:22;101669.97;;;17.66;54.32
59190;BME280;50749;51.636;4.948;2023-02-23T14:08:01;101661.03;;;17.69;54.30
59190;BME280;50749;51.636;4.948;2023-02-23T14:10:39;101659.19;;;17.73;54.54
59190;BME280;50749;51.636;4.948;2023-02-23T14:28:35;101663.53;;;18.04;55.39
59190;BME280;50749;51.636;4.948;2023-02-23T14:41:38;101670.75;;;18.17;54.51
59190;BME280;50749;51.636;4.948;2023-02-23T14:49:21;101658.31;;;18.24;54.43
59190;BME280;50749;51.636;4.948;2023-02-23T14:51:50;101650.84;;;18.24;54.28
59190;BME280;50749;51.636;4.948;2023-02-23T14:54:32;101672.28;;;18.27;54.40
59190;BME280;50749;51.636;4.948;2023-02-23T14:57:01;101663.63;;;18.29;54.42
59190;BME280;50749;51.636;4.948;2023-02-23T14:59:39;101662.16;;;18.31;54.60
59190;BME280;50749;51.636;4.948;2023-02-23T15:02:19;101669.28;;;18.32;54.47
59190;BME280;50749;51.636;4.948;2023-02-23T15:04:45;101660.97;;;18.32;54.77
59190;BME280;50749;51.636;4.948;2023-02-23T15:07:18;101661.81;;;18.33;54.29
59190;BME280;50749;51.636;4.948;2023-02-23T15:09:50;101664.59;;;18.33;54.40
59190;BME280;50749;51.636;4.948;2023-02-23T15:12:23;101667.00;;;18.34;54.58
59190;BME280;50749;51.636;4.948;2023-02-23T15:14:58;101659.97;;;18.37;54.06
59190;BME280;50749;51.636;4.948;2023-02-23T15:17:26;101659.63;;;18.38;53.99
59190;BME280;50749;51.636;4.948;2023-02-23T15:19:58;101668.72;;;18.39;54.94
59190;BME280;50749;51.636;4.948;2023-02-23T15:22:27;101663.69;;;18.41;54.87
59190;BME280;50749;51.636;4.948;2023-02-23T15:24:58;101666.47;;;18.41;54.51
59190;BME280;50749;51.636;4.948;2023-02-23T15:27:35;101668.06;;;18.42;54.42
59190;BME280;50749;51.636;4.948;2023-02-23T15:30:17;101662.53;;;18.42;54.21